Clear Creek, West Virginia
Current Conditions -  °F | °C
As of 11:51 PM on Wednesday 22 Oct 2014 (Local Time) from KBKW Reporting Station
Light Rain Light Rain  
Wind Chill: 37°   Ceiling: 400
Heat Index: 42°   Visibility: 5mi
Dew Point: 40°   Wind: 8mph
Humidity: 92%   Direction: 360°N
Pressure: 30.17"   Gusts: NA
Location:  37.92°N, 81.34°W
Report Text: KBKW 230351Z AUTO 36007KT 5SM -RA BR OVC004 06/04 A3017 RMK AO2 RAB14 SLP227 P0000 T00560044 TSNO
Loading
Personal Weather Stations






























Interactive Weather Map
Tropical Storm Tracking
New forecast layout! Learn more

10-Day Weather Forecast

Advertisements
Track Severe Weather on mobile